sensor_id;sensor_type;location;lat;lon;timestamp;P1;durP1;ratioP1;P2;durP2;ratioP2
59702;SDS011;45570;48.782;8.332;2022-10-16T13:41:14;7.78;;;1.90;;
59702;SDS011;45570;48.782;8.332;2022-10-16T13:43:45;15.57;;;2.58;;
59702;SDS011;45570;48.782;8.332;2022-10-16T13:46:17;8.25;;;3.17;;
59702;SDS011;45570;48.782;8.332;2022-10-16T13:48:55;8.20;;;2.35;;
59702;SDS011;45570;48.782;8.332;2022-10-16T13:51:25;7.10;;;2.38;;
59702;SDS011;45570;48.782;8.332;2022-10-16T13:53:55;5.57;;;2.40;;
59702;SDS011;45570;48.782;8.332;2022-10-16T13:56:27;4.40;;;2.72;;
59702;SDS011;45570;48.782;8.332;2022-10-16T13:58:57;20.38;;;2.95;;
59702;SDS011;45570;48.782;8.332;2022-10-16T14:01:27;12.23;;;3.00;;
59702;SDS011;45570;48.782;8.332;2022-10-16T14:04:02;7.72;;;2.47;;
59702;SDS011;45570;48.782;8.332;2022-10-16T14:06:33;8.07;;;2.35;;
59702;SDS011;45570;48.782;8.332;2022-10-16T14:09:04;6.38;;;2.33;;
59702;SDS011;45570;48.782;8.332;2022-10-16T14:11:36;5.70;;;2.50;;
59702;SDS011;45570;48.782;8.332;2022-10-16T14:14:12;5.93;;;2.67;;
59702;SDS011;45570;48.782;8.332;2022-10-16T14:16:42;21.25;;;3.33;;
59702;SDS011;45570;48.782;8.332;2022-10-16T14:19:14;9.25;;;2.40;;
59702;SDS011;45570;48.782;8.332;2022-10-16T14:21:48;3.00;;;2.25;;
59702;SDS011;45570;48.782;8.332;2022-10-16T14:24:25;4.20;;;2.60;;
59702;SDS011;45570;48.782;8.332;2022-10-16T14:26:57;6.75;;;2.67;;
59702;SDS011;45570;48.782;8.332;2022-10-16T14:29:27;6.00;;;2.92;;
59702;SDS011;45570;48.782;8.332;2022-10-16T14:31:58;8.60;;;3.30;;
59702;SDS011;45570;48.782;8.332;2022-10-16T14:34:29;12.02;;;3.40;;
59702;SDS011;45570;48.782;8.332;2022-10-16T14:37:00;8.85;;;3.10;;
59702;SDS011;45570;48.782;8.332;2022-10-16T14:39:35;8.02;;;3.50;;
59702;SDS011;45570;48.782;8.332;2022-10-16T14:42:11;6.05;;;2.72;;
59702;SDS011;45570;48.782;8.332;2022-10-16T14:44:44;8.20;;;2.67;;
59702;SDS011;45570;48.782;8.332;2022-10-16T14:47:14;8.80;;;3.13;;
59702;SDS011;45570;48.782;8.332;2022-10-16T14:49:48;6.65;;;2.50;;
59702;SDS011;45570;48.782;8.332;2022-10-16T14:52:17;4.00;;;2.90;;
59702;SDS011;45570;48.782;8.332;2022-10-16T14:54:47;8.40;;;3.38;;
59702;SDS011;45570;48.782;8.332;2022-10-16T14:57:18;12.10;;;2.85;;
59702;SDS011;45570;48.782;8.332;2022-10-16T14:59:50;5.85;;;2.63;;
59702;SDS011;45570;48.782;8.332;2022-10-16T15:02:21;7.50;;;2.58;;
59702;SDS011;45570;48.782;8.332;2022-10-16T15:04:55;3.50;;;2.97;;
59702;SDS011;45570;48.782;8.332;2022-10-16T15:07:24;11.32;;;3.03;;
59702;SDS011;45570;48.782;8.332;2022-10-16T15:09:53;18.90;;;3.50;;
59702;SDS011;45570;48.782;8.332;2022-10-16T15:12:25;6.47;;;2.88;;
59702;SDS011;45570;48.782;8.332;2022-10-16T15:14:53;12.07;;;3.20;;
59702;SDS011;45570;48.782;8.332;2022-10-16T15:17:22;10.05;;;3.72;;
59702;SDS011;45570;48.782;8.332;2022-10-16T15:19:51;12.75;;;3.45;;
59702;SDS011;45570;48.782;8.332;2022-10-16T15:22:20;11.23;;;3.22;;
59702;SDS011;45570;48.782;8.332;2022-10-16T15:24:50;10.50;;;3.15;;
59702;SDS011;45570;48.782;8.332;2022-10-16T15:27:18;11.48;;;3.30;;
59702;SDS011;45570;48.782;8.332;2022-10-16T15:29:49;8.82;;;2.70;;
59702;SDS011;45570;48.782;8.332;2022-10-16T15:32:17;9.95;;;2.90;;
59702;SDS011;45570;48.782;8.332;2022-10-16T15:34:46;10.95;;;2.95;;
59702;SDS011;45570;48.782;8.332;2022-10-16T15:37:15;7.88;;;3.13;;
59702;SDS011;45570;48.782;8.332;2022-10-16T15:39:44;8.88;;;3.00;;
59702;SDS011;45570;48.782;8.332;2022-10-16T15:42:12;6.85;;;2.97;;
59702;SDS011;45570;48.782;8.332;2022-10-16T15:44:41;12.88;;;3.47;;
59702;SDS011;45570;48.782;8.332;2022-10-16T15:47:12;14.38;;;3.63;;
59702;SDS011;45570;48.782;8.332;2022-10-16T15:49:41;15.90;;;3.60;;
59702;SDS011;45570;48.782;8.332;2022-10-16T15:52:11;12.38;;;3.47;;
59702;SDS011;45570;48.782;8.332;2022-10-16T15:54:40;8.88;;;3.70;;
59702;SDS011;45570;48.782;8.332;2022-10-16T15:57:10;11.93;;;3.53;;
59702;SDS011;45570;48.782;8.332;2022-10-16T15:59:40;15.57;;;4.22;;
59702;SDS011;45570;48.782;8.332;2022-10-16T16:02:09;13.93;;;3.90;;
59702;SDS011;45570;48.782;8.332;2022-10-16T16:04:39;13.48;;;4.07;;
59702;SDS011;45570;48.782;8.332;2022-10-16T16:07:10;22.40;;;4.65;;
59702;SDS011;45570;48.782;8.332;2022-10-16T16:09:39;20.42;;;3.80;;
